sensor_id;sensor_type;location;lat;lon;timestamp;pressure;altitude;pressure_sealevel;temperature;humidity
21988;BME280;11158;53.404;-1.510;2024-02-26T00:01:32;99652.22;;;3.32;100.00
21988;BME280;11158;53.404;-1.510;2024-02-26T00:03:59;99650.25;;;3.40;100.00
21988;BME280;11158;53.404;-1.510;2024-02-26T00:06:24;99656.53;;;3.36;100.00
21988;BME280;11158;53.404;-1.510;2024-02-26T00:08:50;99670.59;;;3.33;100.00
21988;BME280;11158;53.404;-1.510;2024-02-26T00:11:15;99665.41;;;3.32;100.00
21988;BME280;11158;53.404;-1.510;2024-02-26T00:13:40;99670.59;;;3.33;100.00
21988;BME280;11158;53.404;-1.510;2024-02-26T00:16:06;99671.72;;;3.25;100.00
21988;BME280;11158;53.404;-1.510;2024-02-26T00:18:32;99686.31;;;3.38;100.00
21988;BME280;11158;53.404;-1.510;2024-02-26T00:20:58;99685.38;;;3.41;100.00
21988;BME280;11158;53.404;-1.510;2024-02-26T00:23:24;99678.25;;;3.44;100.00
21988;BME280;11158;53.404;-1.510;2024-02-26T00:25:49;99683.47;;;3.47;100.00
21988;BME280;11158;53.404;-1.510;2024-02-26T00:28:14;99691.44;;;3.44;100.00
21988;BME280;11158;53.404;-1.510;2024-02-26T00:30:40;99693.81;;;3.55;100.00
21988;BME280;11158;53.404;-1.510;2024-02-26T00:33:05;99700.81;;;3.56;100.00
21988;BME280;11158;53.404;-1.510;2024-02-26T00:35:31;99692.03;;;3.56;100.00
21988;BME280;11158;53.404;-1.510;2024-02-26T00:37:56;99698.94;;;3.61;99.95
21988;BME280;11158;53.404;-1.510;2024-02-26T00:40:22;99704.25;;;3.58;100.00
21988;BME280;11158;53.404;-1.510;2024-02-26T00:42:47;99707.88;;;3.54;99.94
21988;BME280;11158;53.404;-1.510;2024-02-26T00:45:13;99711.56;;;3.47;100.00
21988;BME280;11158;53.404;-1.510;2024-02-26T00:47:39;99719.63;;;3.39;100.00
21988;BME280;11158;53.404;-1.510;2024-02-26T00:50:07;99714.56;;;3.30;100.00
21988;BME280;11158;53.404;-1.510;2024-02-26T00:52:34;99722.63;;;3.24;100.00
21988;BME280;11158;53.404;-1.510;2024-02-26T00:54:59;99725.34;;;3.21;100.00
21988;BME280;11158;53.404;-1.510;2024-02-26T00:57:24;99720.91;;;3.23;100.00
21988;BME280;11158;53.404;-1.510;2024-02-26T00:59:50;99734.09;;;3.21;100.00
21988;BME280;11158;53.404;-1.510;2024-02-26T01:02:16;99742.09;;;3.17;100.00
21988;BME280;11158;53.404;-1.510;2024-02-26T01:04:41;99735.09;;;3.16;100.00
21988;BME280;11158;53.404;-1.510;2024-02-26T01:07:06;99743.00;;;3.16;100.00
21988;BME280;11158;53.404;-1.510;2024-02-26T01:09:32;99743.88;;;3.16;100.00
21988;BME280;11158;53.404;-1.510;2024-02-26T01:11:57;99757.97;;;3.13;100.00
21988;BME280;11158;53.404;-1.510;2024-02-26T01:14:22;99766.63;;;3.19;100.00
21988;BME280;11158;53.404;-1.510;2024-02-26T01:16:48;99768.38;;;3.20;100.00
21988;BME280;11158;53.404;-1.510;2024-02-26T01:19:14;99774.44;;;3.23;100.00
21988;BME280;11158;53.404;-1.510;2024-02-26T01:21:40;99770.00;;;3.25;100.00
21988;BME280;11158;53.404;-1.510;2024-02-26T01:24:06;99775.38;;;3.21;100.00
21988;BME280;11158;53.404;-1.510;2024-02-26T01:26:32;99778.72;;;3.27;100.00
21988;BME280;11158;53.404;-1.510;2024-02-26T01:28:57;99783.31;;;3.19;100.00
21988;BME280;11158;53.404;-1.510;2024-02-26T01:31:23;99784.22;;;3.17;100.00
21988;BME280;11158;53.404;-1.510;2024-02-26T01:33:48;99787.56;;;3.25;99.96
21988;BME280;11158;53.404;-1.510;2024-02-26T01:36:13;99796.28;;;3.28;100.00
21988;BME280;11158;53.404;-1.510;2024-02-26T01:38:39;99796.19;;;3.31;100.00
21988;BME280;11158;53.404;-1.510;2024-02-26T01:41:04;99803.09;;;3.37;99.93
21988;BME280;11158;53.404;-1.510;2024-02-26T01:43:29;99803.19;;;3.34;99.72
21988;BME280;11158;53.404;-1.510;2024-02-26T01:45:55;99804.91;;;3.35;99.51
21988;BME280;11158;53.404;-1.510;2024-02-26T01:48:20;99816.41;;;3.31;99.71
21988;BME280;11158;53.404;-1.510;2024-02-26T01:50:46;99818.34;;;3.23;100.00
21988;BME280;11158;53.404;-1.510;2024-02-26T01:53:12;99814.97;;;3.15;100.00
21988;BME280;11158;53.404;-1.510;2024-02-26T01:55:38;99824.53;;;3.19;100.00
21988;BME280;11158;53.404;-1.510;2024-02-26T01:58:04;99834.34;;;3.13;99.73
21988;BME280;11158;53.404;-1.510;2024-02-26T02:00:30;99842.97;;;3.19;99.86
21988;BME280;11158;53.404;-1.510;2024-02-26T02:02:56;99833.47;;;3.13;100.00
21988;BME280;11158;53.404;-1.510;2024-02-26T02:05:22;99845.88;;;3.06;100.00
21988;BME280;11158;53.404;-1.510;2024-02-26T02:07:47;99842.09;;;3.20;99.34
21988;BME280;11158;53.404;-1.510;2024-02-26T02:10:15;99847.38;;;3.20;99.50
21988;BME280;11158;53.404;-1.510;2024-02-26T02:12:41;99849.34;;;3.08;99.89
21988;BME280;11158;53.404;-1.510;2024-02-26T02:15:06;99848.47;;;3.08;100.00
21988;BME280;11158;53.404;-1.510;2024-02-26T02:17:32;99849.16;;;3.18;98.73
21988;BME280;11158;53.404;-1.510;2024-02-26T02:19:58;99850.19;;;3.09;99.92
21988;BME280;11158;53.404;-1.510;2024-02-26T02:22:23;99863.41;;;3.07;99.89
21988;BME280;11158;53.404;-1.510;2024-02-26T02:24:49;99872.16;;;3.09;99.77
21988;BME280;11158;53.404;-1.510;2024-02-26T02:27:15;99872.03;;;3.16;99.10
21988;BME280;11158;53.404;-1.510;2024-02-26T02:29:41;99881.78;;;3.10;99.65
21988;BME280;11158;53.404;-1.510;2024-02-26T02:32:07;99876.69;;;3.01;99.60
21988;BME280;11158;53.404;-1.510;2024-02-26T02:34:33;99877.63;;;2.99;99.44
21988;BME280;11158;53.404;-1.510;2024-02-26T02:36:59;99886.22;;;3.07;99.63
21988;BME280;11158;53.404;-1.510;2024-02-26T02:39:24;99889.81;;;3.03;98.56
21988;BME280;11158;53.404;-1.510;2024-02-26T02:41:50;99889.84;;;3.01;98.90
21988;BME280;11158;53.404;-1.510;2024-02-26T02:44:15;99904.63;;;3.08;98.23
21988;BME280;11158;53.404;-1.510;2024-02-26T02:46:41;99903.84;;;3.03;98.59
21988;BME280;11158;53.404;-1.510;2024-02-26T02:49:09;99909.19;;;3.00;98.62
21988;BME280;11158;53.404;-1.510;2024-02-26T02:51:38;99911.88;;;2.97;99.05
21988;BME280;11158;53.404;-1.510;2024-02-26T02:54:03;99912.78;;;2.96;99.82
21988;BME280;11158;53.404;-1.510;2024-02-26T02:56:29;99916.41;;;2.89;100.00
21988;BME280;11158;53.404;-1.510;2024-02-26T02:58:54;99921.72;;;2.84;100.00
21988;BME280;11158;53.404;-1.510;2024-02-26T03:01:20;99924.31;;;2.89;100.00
21988;BME280;11158;53.404;-1.510;2024-02-26T03:03:45;99927.91;;;2.83;100.00
21988;BME280;11158;53.404;-1.510;2024-02-26T03:06:10;99934.75;;;2.93;99.91
21988;BME280;11158;53.404;-1.510;2024-02-26T03:08:36;99938.41;;;2.85;100.00
21988;BME280;11158;53.404;-1.510;2024-02-26T03:11:05;99942.72;;;2.90;99.76
21988;BME280;11158;53.404;-1.510;2024-02-26T03:13:30;99938.31;;;2.91;99.45
21988;BME280;11158;53.404;-1.510;2024-02-26T03:15:56;99940.00;;;2.93;99.58
21988;BME280;11158;53.404;-1.510;2024-02-26T03:18:22;99953.22;;;2.90;99.61
21988;BME280;11158;53.404;-1.510;2024-02-26T03:20:47;99957.59;;;2.90;100.00
21988;BME280;11158;53.404;-1.510;2024-02-26T03:23:13;99955.03;;;2.88;100.00
21988;BME280;11158;53.404;-1.510;2024-02-26T03:25:42;99959.31;;;2.94;99.33
21988;BME280;11158;53.404;-1.510;2024-02-26T03:28:08;99955.94;;;2.86;99.92
21988;BME280;11158;53.404;-1.510;2024-02-26T03:30:33;99960.25;;;2.90;100.00
21988;BME280;11158;53.404;-1.510;2024-02-26T03:32:58;99963.78;;;2.89;100.00
21988;BME280;11158;53.404;-1.510;2024-02-26T03:35:24;99966.31;;;2.93;99.77
21988;BME280;11158;53.404;-1.510;2024-02-26T03:37:49;99966.19;;;3.01;99.38
21988;BME280;11158;53.404;-1.510;2024-02-26T03:40:16;99969.66;;;3.03;98.91
21988;BME280;11158;53.404;-1.510;2024-02-26T03:42:43;99976.69;;;3.04;98.09
21988;BME280;11158;53.404;-1.510;2024-02-26T03:45:09;99986.19;;;3.13;98.20
21988;BME280;11158;53.404;-1.510;2024-02-26T03:47:34;99986.22;;;3.10;98.71
21988;BME280;11158;53.404;-1.510;2024-02-26T03:49:59;99989.72;;;3.10;98.86
21988;BME280;11158;53.404;-1.510;2024-02-26T03:52:25;99999.53;;;3.02;99.42
21988;BME280;11158;53.404;-1.510;2024-02-26T03:54:50;100010.97;;;3.00;99.79
21988;BME280;11158;53.404;-1.510;2024-02-26T03:57:16;100014.66;;;2.88;100.00
21988;BME280;11158;53.404;-1.510;2024-02-26T03:59:41;100013.78;;;2.89;100.00
21988;BME280;11158;53.404;-1.510;2024-02-26T04:02:06;100026.03;;;2.90;100.00
21988;BME280;11158;53.404;-1.510;2024-02-26T04:04:35;100018.13;;;2.91;100.00
21988;BME280;11158;53.404;-1.510;2024-02-26T04:07:00;100028.75;;;2.87;100.00
21988;BME280;11158;53.404;-1.510;2024-02-26T04:09:26;100037.66;;;2.77;100.00
21988;BME280;11158;53.404;-1.510;2024-02-26T04:11:51;100035.88;;;2.79;100.00
21988;BME280;11158;53.404;-1.510;2024-02-26T04:14:17;100044.69;;;2.76;100.00
21988;BME280;11158;53.404;-1.510;2024-02-26T04:16:42;100043.75;;;2.79;100.00
21988;BME280;11158;53.404;-1.510;2024-02-26T04:19:08;100050.03;;;2.71;100.00
21988;BME280;11158;53.404;-1.510;2024-02-26T04:21:34;100065.13;;;2.60;100.00
21988;BME280;11158;53.404;-1.510;2024-02-26T04:24:00;100054.50;;;2.65;100.00
21988;BME280;11158;53.404;-1.510;2024-02-26T04:26:28;100059.75;;;2.68;100.00
21988;BME280;11158;53.404;-1.510;2024-02-26T04:28:54;100067.63;;;2.68;100.00
21988;BME280;11158;53.404;-1.510;2024-02-26T04:31:19;100081.63;;;2.71;100.00
21988;BME280;11158;53.404;-1.510;2024-02-26T04:33:44;100089.56;;;2.67;100.00
21988;BME280;11158;53.404;-1.510;2024-02-26T04:36:14;100086.09;;;2.65;100.00
21988;BME280;11158;53.404;-1.510;2024-02-26T04:38:45;100101.78;;;2.71;100.00
21988;BME280;11158;53.404;-1.510;2024-02-26T04:41:11;100098.34;;;2.66;100.00
21988;BME280;11158;53.404;-1.510;2024-02-26T04:43:37;100093.03;;;2.69;100.00
21988;BME280;11158;53.404;-1.510;2024-02-26T04:46:09;100112.28;;;2.71;100.00
21988;BME280;11158;53.404;-1.510;2024-02-26T04:48:35;100108.91;;;2.63;100.00
21988;BME280;11158;53.404;-1.510;2024-02-26T04:51:01;100119.41;;;2.66;100.00
21988;BME280;11158;53.404;-1.510;2024-02-26T04:53:27;100125.50;;;2.69;100.00
21988;BME280;11158;53.404;-1.510;2024-02-26T04:55:52;100128.22;;;2.62;100.00
21988;BME280;11158;53.404;-1.510;2024-02-26T04:58:17;100137.00;;;2.61;100.00
21988;BME280;11158;53.404;-1.510;2024-02-26T05:00:43;100137.84;;;2.64;100.00
21988;BME280;11158;53.404;-1.510;2024-02-26T05:03:09;100144.00;;;2.62;100.00
21988;BME280;11158;53.404;-1.510;2024-02-26T05:05:38;100148.38;;;2.64;100.00
21988;BME280;11158;53.404;-1.510;2024-02-26T05:08:04;100160.69;;;2.62;100.00
21988;BME280;11158;53.404;-1.510;2024-02-26T05:10:30;100166.81;;;2.63;100.00
21988;BME280;11158;53.404;-1.510;2024-02-26T05:12:55;100166.72;;;2.69;100.00
21988;BME280;11158;53.404;-1.510;2024-02-26T05:15:21;100179.75;;;2.77;100.00
21988;BME280;11158;53.404;-1.510;2024-02-26T05:17:46;100178.91;;;2.74;100.00
21988;BME280;11158;53.404;-1.510;2024-02-26T05:20:12;100181.53;;;2.78;100.00
21988;BME280;11158;53.404;-1.510;2024-02-26T05:22:37;100187.53;;;2.86;100.00
21988;BME280;11158;53.404;-1.510;2024-02-26T05:25:03;100191.84;;;2.93;100.00
21988;BME280;11158;53.404;-1.510;2024-02-26T05:27:29;100200.44;;;3.06;100.00
21988;BME280;11158;53.404;-1.510;2024-02-26T05:29:54;100208.31;;;3.07;100.00
21988;BME280;11158;53.404;-1.510;2024-02-26T05:32:19;100211.84;;;3.06;100.00
21988;BME280;11158;53.404;-1.510;2024-02-26T05:34:45;100212.78;;;3.01;100.00
21988;BME280;11158;53.404;-1.510;2024-02-26T05:37:10;100213.72;;;2.97;100.00
21988;BME280;11158;53.404;-1.510;2024-02-26T05:39:36;100220.63;;;3.05;100.00
21988;BME280;11158;53.404;-1.510;2024-02-26T05:42:02;100227.59;;;3.09;100.00
21988;BME280;11158;53.404;-1.510;2024-02-26T05:44:27;100233.63;;;3.18;100.00
21988;BME280;11158;53.404;-1.510;2024-02-26T05:46:53;100242.47;;;3.12;100.00
21988;BME280;11158;53.404;-1.510;2024-02-26T05:49:18;100245.13;;;3.10;100.00
21988;BME280;11158;53.404;-1.510;2024-02-26T05:51:43;100244.41;;;2.99;100.00
21988;BME280;11158;53.404;-1.510;2024-02-26T05:54:09;100252.28;;;2.99;100.00
21988;BME280;11158;53.404;-1.510;2024-02-26T05:56:35;100253.25;;;2.92;100.00
21988;BME280;11158;53.404;-1.510;2024-02-26T05:59:00;100250.69;;;2.87;100.00
21988;BME280;11158;53.404;-1.510;2024-02-26T06:01:26;100259.47;;;2.88;100.00
21988;BME280;11158;53.404;-1.510;2024-02-26T06:03:52;100261.25;;;2.84;100.00
21988;BME280;11158;53.404;-1.510;2024-02-26T06:06:17;100270.91;;;2.84;100.00
21988;BME280;11158;53.404;-1.510;2024-02-26T06:08:43;100268.31;;;2.81;100.00
21988;BME280;11158;53.404;-1.510;2024-02-26T06:11:09;100276.16;;;2.87;100.00
21988;BME280;11158;53.404;-1.510;2024-02-26T06:13:35;100273.44;;;2.93;100.00
21988;BME280;11158;53.404;-1.510;2024-02-26T06:16:01;100282.94;;;3.03;100.00
21988;BME280;11158;53.404;-1.510;2024-02-26T06:18:26;100274.19;;;3.03;100.00
21988;BME280;11158;53.404;-1.510;2024-02-26T06:20:51;100282.06;;;3.06;100.00
21988;BME280;11158;53.404;-1.510;2024-02-26T06:23:17;100293.28;;;3.19;100.00
21988;BME280;11158;53.404;-1.510;2024-02-26T06:25:42;100298.66;;;3.11;100.00
21988;BME280;11158;53.404;-1.510;2024-02-26T06:28:08;100301.16;;;3.20;100.00
21988;BME280;11158;53.404;-1.510;2024-02-26T06:30:34;100302.06;;;3.21;100.00
21988;BME280;11158;53.404;-1.510;2024-02-26T06:32:59;100306.41;;;3.23;100.00
21988;BME280;11158;53.404;-1.510;2024-02-26T06:35:25;100314.41;;;3.17;100.00
21988;BME280;11158;53.404;-1.510;2024-02-26T06:37:50;100316.09;;;3.23;100.00
21988;BME280;11158;53.404;-1.510;2024-02-26T06:40:18;100317.72;;;3.30;100.00
21988;BME280;11158;53.404;-1.510;2024-02-26T06:42:44;100320.28;;;3.36;100.00
21988;BME280;11158;53.404;-1.510;2024-02-26T06:45:09;100322.09;;;3.32;100.00
21988;BME280;11158;53.404;-1.510;2024-02-26T06:47:35;100325.63;;;3.31;100.00
21988;BME280;11158;53.404;-1.510;2024-02-26T06:50:00;100328.34;;;3.24;100.00
21988;BME280;11158;53.404;-1.510;2024-02-26T06:52:26;100339.00;;;3.15;100.00
21988;BME280;11158;53.404;-1.510;2024-02-26T06:54:52;100331.09;;;3.15;100.00
21988;BME280;11158;53.404;-1.510;2024-02-26T06:57:21;100345.16;;;3.13;100.00
21988;BME280;11158;53.404;-1.510;2024-02-26T06:59:47;100357.50;;;3.10;100.00
21988;BME280;11158;53.404;-1.510;2024-02-26T07:02:12;100352.16;;;3.15;100.00
21988;BME280;11158;53.404;-1.510;2024-02-26T07:04:38;100349.56;;;3.13;100.00
21988;BME280;11158;53.404;-1.510;2024-02-26T07:07:04;100359.94;;;3.27;100.00
21988;BME280;11158;53.404;-1.510;2024-02-26T07:09:29;100352.84;;;3.30;100.00
21988;BME280;11158;53.404;-1.510;2024-02-26T07:11:54;100366.91;;;3.31;100.00
21988;BME280;11158;53.404;-1.510;2024-02-26T07:14:20;100363.50;;;3.21;100.00
21988;BME280;11158;53.404;-1.510;2024-02-26T07:16:45;100369.66;;;3.19;100.00
21988;BME280;11158;53.404;-1.510;2024-02-26T07:19:11;100374.97;;;3.16;100.00
21988;BME280;11158;53.404;-1.510;2024-02-26T07:21:36;100375.03;;;3.11;100.00
21988;BME280;11158;53.404;-1.510;2024-02-26T07:24:02;100383.75;;;3.16;100.00
21988;BME280;11158;53.404;-1.510;2024-02-26T07:26:27;100391.53;;;3.27;100.00
21988;BME280;11158;53.404;-1.510;2024-02-26T07:28:55;100389.81;;;3.23;100.00
21988;BME280;11158;53.404;-1.510;2024-02-26T07:31:20;100390.69;;;3.25;100.00
21988;BME280;11158;53.404;-1.510;2024-02-26T07:33:46;100402.94;;;3.27;100.00
21988;BME280;11158;53.404;-1.510;2024-02-26T07:36:11;100408.09;;;3.35;100.00
21988;BME280;11158;53.404;-1.510;2024-02-26T07:38:37;100413.34;;;3.38;100.00
21988;BME280;11158;53.404;-1.510;2024-02-26T07:41:02;100408.88;;;3.43;100.00
21988;BME280;11158;53.404;-1.510;2024-02-26T07:43:28;100417.59;;;3.48;100.00
21988;BME280;11158;53.404;-1.510;2024-02-26T07:45:53;100428.13;;;3.50;100.00
21988;BME280;11158;53.404;-1.510;2024-02-26T07:48:18;100429.91;;;3.49;100.00
21988;BME280;11158;53.404;-1.510;2024-02-26T07:50:44;100435.06;;;3.57;100.00
21988;BME280;11158;53.404;-1.510;2024-02-26T07:53:09;100435.06;;;3.59;100.00
21988;BME280;11158;53.404;-1.510;2024-02-26T07:55:35;100438.66;;;3.51;100.00
21988;BME280;11158;53.404;-1.510;2024-02-26T07:58:00;100448.34;;;3.48;100.00
21988;BME280;11158;53.404;-1.510;2024-02-26T08:00:26;100449.22;;;3.50;100.00
21988;BME280;11158;53.404;-1.510;2024-02-26T08:02:51;100453.63;;;3.49;100.00
21988;BME280;11158;53.404;-1.510;2024-02-26T08:05:16;100465.84;;;3.54;100.00
21988;BME280;11158;53.404;-1.510;2024-02-26T08:07:42;100468.47;;;3.57;100.00
21988;BME280;11158;53.404;-1.510;2024-02-26T08:10:08;100468.47;;;3.57;100.00
21988;BME280;11158;53.404;-1.510;2024-02-26T08:12:33;100461.34;;;3.62;100.00
21988;BME280;11158;53.404;-1.510;2024-02-26T08:14:59;100463.91;;;3.68;100.00
21988;BME280;11158;53.404;-1.510;2024-02-26T08:17:25;100470.13;;;3.64;100.00
21988;BME280;11158;53.404;-1.510;2024-02-26T08:19:50;100465.78;;;3.60;100.00
21988;BME280;11158;53.404;-1.510;2024-02-26T08:22:16;100479.03;;;3.54;100.00
21988;BME280;11158;53.404;-1.510;2024-02-26T08:24:43;100483.41;;;3.55;100.00
21988;BME280;11158;53.404;-1.510;2024-02-26T08:27:08;100492.19;;;3.55;100.00
21988;BME280;11158;53.404;-1.510;2024-02-26T08:29:34;100489.50;;;3.60;100.00
21988;BME280;11158;53.404;-1.510;2024-02-26T08:31:59;100489.50;;;3.60;100.00
21988;BME280;11158;53.404;-1.510;2024-02-26T08:34:25;100494.69;;;3.66;100.00
21988;BME280;11158;53.404;-1.510;2024-02-26T08:36:50;100506.91;;;3.73;100.00
21988;BME280;11158;53.404;-1.510;2024-02-26T08:39:16;100500.69;;;3.79;100.00
21988;BME280;11158;53.404;-1.510;2024-02-26T08:41:43;100510.22;;;3.90;100.00
21988;BME280;11158;53.404;-1.510;2024-02-26T08:44:08;100505.56;;;4.11;100.00
21988;BME280;11158;53.404;-1.510;2024-02-26T08:46:33;100504.59;;;4.18;100.00
21988;BME280;11158;53.404;-1.510;2024-02-26T08:48:59;100501.13;;;4.13;100.00
21988;BME280;11158;53.404;-1.510;2024-02-26T08:51:25;100508.19;;;4.11;100.00
21988;BME280;11158;53.404;-1.510;2024-02-26T08:53:50;100517.84;;;4.14;100.00
21988;BME280;11158;53.404;-1.510;2024-02-26T08:56:16;100521.25;;;4.22;100.00
21988;BME280;11158;53.404;-1.510;2024-02-26T08:58:43;100528.09;;;4.35;99.42
21988;BME280;11158;53.404;-1.510;2024-02-26T09:01:09;100530.69;;;4.38;98.73
21988;BME280;11158;53.404;-1.510;2024-02-26T09:03:34;100538.63;;;4.38;98.99
21988;BME280;11158;53.404;-1.510;2024-02-26T09:05:59;100557.84;;;4.48;96.89
21988;BME280;11158;53.404;-1.510;2024-02-26T09:08:25;100555.91;;;4.59;96.56
21988;BME280;11158;53.404;-1.510;2024-02-26T09:10:50;100558.34;;;4.72;96.55
21988;BME280;11158;53.404;-1.510;2024-02-26T09:13:16;100559.56;;;4.49;97.40
21988;BME280;11158;53.404;-1.510;2024-02-26T09:15:41;100559.41;;;4.60;97.77
21988;BME280;11158;53.404;-1.510;2024-02-26T09:18:06;100568.94;;;4.68;96.64
21988;BME280;11158;53.404;-1.510;2024-02-26T09:20:32;100568.19;;;4.62;97.18
21988;BME280;11158;53.404;-1.510;2024-02-26T09:22:57;100570.78;;;4.65;97.06
21988;BME280;11158;53.404;-1.510;2024-02-26T09:25:22;100568.19;;;4.62;98.04
21988;BME280;11158;53.404;-1.510;2024-02-26T09:27:48;100575.28;;;4.57;98.58
21988;BME280;11158;53.404;-1.510;2024-02-26T09:30:13;100580.41;;;4.67;98.35
21988;BME280;11158;53.404;-1.510;2024-02-26T09:32:39;100585.50;;;4.80;97.80
21988;BME280;11158;53.404;-1.510;2024-02-26T09:35:06;100578.38;;;4.86;96.75
21988;BME280;11158;53.404;-1.510;2024-02-26T09:37:32;100581.72;;;4.98;96.39
21988;BME280;11158;53.404;-1.510;2024-02-26T09:39:58;100596.47;;;5.13;96.03
21988;BME280;11158;53.404;-1.510;2024-02-26T09:42:25;100598.75;;;5.34;94.34
21988;BME280;11158;53.404;-1.510;2024-02-26T09:44:53;100606.56;;;5.40;92.62
21988;BME280;11158;53.404;-1.510;2024-02-26T09:47:19;100609.97;;;5.48;92.90
21988;BME280;11158;53.404;-1.510;2024-02-26T09:49:47;100606.41;;;5.50;90.88
21988;BME280;11158;53.404;-1.510;2024-02-26T09:52:14;100613.59;;;5.41;92.33
21988;BME280;11158;53.404;-1.510;2024-02-26T09:54:40;100622.41;;;5.42;90.49
21988;BME280;11158;53.404;-1.510;2024-02-26T09:57:09;100630.53;;;5.30;91.75
21988;BME280;11158;53.404;-1.510;2024-02-26T09:59:41;100622.75;;;5.20;91.15
21988;BME280;11158;53.404;-1.510;2024-02-26T10:02:14;100623.38;;;5.35;91.03
21988;BME280;11158;53.404;-1.510;2024-02-26T10:04:40;100617.06;;;5.46;89.02
21988;BME280;11158;53.404;-1.510;2024-02-26T10:07:12;100615.25;;;5.48;89.76
21988;BME280;11158;53.404;-1.510;2024-02-26T10:09:38;100625.84;;;5.47;89.83
21988;BME280;11158;53.404;-1.510;2024-02-26T10:12:04;100625.56;;;5.64;88.76
21988;BME280;11158;53.404;-1.510;2024-02-26T10:14:31;100626.56;;;5.57;87.69
21988;BME280;11158;53.404;-1.510;2024-02-26T10:16:56;100636.09;;;5.65;87.46
21988;BME280;11158;53.404;-1.510;2024-02-26T10:19:28;100639.63;;;5.66;87.84
21988;BME280;11158;53.404;-1.510;2024-02-26T10:21:59;100647.03;;;5.44;86.89
21988;BME280;11158;53.404;-1.510;2024-02-26T10:24:28;100632.13;;;5.40;85.69
21988;BME280;11158;53.404;-1.510;2024-02-26T10:26:55;100639.94;;;5.47;86.09
21988;BME280;11158;53.404;-1.510;2024-02-26T10:29:22;100634.66;;;5.46;86.16
21988;BME280;11158;53.404;-1.510;2024-02-26T10:31:48;100645.88;;;5.60;86.13
21988;BME280;11158;53.404;-1.510;2024-02-26T10:34:17;100650.31;;;5.60;83.94
21988;BME280;11158;53.404;-1.510;2024-02-26T10:36:43;100644.28;;;5.50;85.12
21988;BME280;11158;53.404;-1.510;2024-02-26T10:39:09;100638.47;;;5.81;83.57
21988;BME280;11158;53.404;-1.510;2024-02-26T10:41:36;100641.19;;;5.76;83.74
21988;BME280;11158;53.404;-1.510;2024-02-26T10:44:02;100651.13;;;5.63;84.84
21988;BME280;11158;53.404;-1.510;2024-02-26T10:46:28;100656.47;;;5.60;84.36
21988;BME280;11158;53.404;-1.510;2024-02-26T10:48:54;100675.69;;;5.70;82.71
21988;BME280;11158;53.404;-1.510;2024-02-26T10:51:26;100663.69;;;5.51;86.92
21988;BME280;11158;53.404;-1.510;2024-02-26T10:53:55;100667.91;;;5.59;85.69
21988;BME280;11158;53.404;-1.510;2024-02-26T10:56:24;100672.59;;;5.45;85.82
21988;BME280;11158;53.404;-1.510;2024-02-26T10:58:50;100670.69;;;5.53;85.45
21988;BME280;11158;53.404;-1.510;2024-02-26T11:01:17;100680.28;;;5.59;87.47
21988;BME280;11158;53.404;-1.510;2024-02-26T11:03:44;100684.41;;;5.77;85.82
21988;BME280;11158;53.404;-1.510;2024-02-26T11:06:10;100683.41;;;5.82;85.82
21988;BME280;11158;53.404;-1.510;2024-02-26T11:08:37;100685.16;;;5.83;84.37
21988;BME280;11158;53.404;-1.510;2024-02-26T11:11:04;100686.25;;;5.72;87.04
21988;BME280;11158;53.404;-1.510;2024-02-26T11:13:31;100682.81;;;5.65;86.86
21988;BME280;11158;53.404;-1.510;2024-02-26T11:15:56;100684.56;;;5.67;87.72
21988;BME280;11158;53.404;-1.510;2024-02-26T11:18:23;100683.41;;;5.82;87.34
21988;BME280;11158;53.404;-1.510;2024-02-26T11:20:49;100695.69;;;5.86;85.85
21988;BME280;11158;53.404;-1.510;2024-02-26T11:23:16;100710.72;;;5.84;84.39
21988;BME280;11158;53.404;-1.510;2024-02-26T11:25:42;100695.47;;;6.00;82.73
21988;BME280;11158;53.404;-1.510;2024-02-26T11:28:08;100690.72;;;6.18;80.08
21988;BME280;11158;53.404;-1.510;2024-02-26T11:30:38;100694.91;;;6.30;80.21
21988;BME280;11158;53.404;-1.510;2024-02-26T11:33:09;100701.13;;;6.29;81.59
21988;BME280;11158;53.404;-1.510;2024-02-26T11:35:36;100689.72;;;6.25;77.46
21988;BME280;11158;53.404;-1.510;2024-02-26T11:38:02;100699.41;;;6.26;76.17
21988;BME280;11158;53.404;-1.510;2024-02-26T11:40:30;100695.56;;;5.96;77.36
21988;BME280;11158;53.404;-1.510;2024-02-26T11:42:56;100699.78;;;6.06;77.29
21988;BME280;11158;53.404;-1.510;2024-02-26T11:45:47;100701.78;;;6.40;76.91
21988;BME280;11158;53.404;-1.510;2024-02-26T11:48:16;100699.03;;;6.44;76.72
21988;BME280;11158;53.404;-1.510;2024-02-26T11:50:46;100704.34;;;6.43;75.59
21988;BME280;11158;53.404;-1.510;2024-02-26T11:53:26;100705.06;;;6.53;73.51
21988;BME280;11158;53.404;-1.510;2024-02-26T11:58:42;100714.84;;;6.49;74.97
21988;BME280;11158;53.404;-1.510;2024-02-26T12:04:02;100723.94;;;6.34;76.59
21988;BME280;11158;53.404;-1.510;2024-02-26T12:06:29;100710.06;;;6.21;77.28
21988;BME280;11158;53.404;-1.510;2024-02-26T12:08:55;100730.78;;;6.46;76.89
21988;BME280;11158;53.404;-1.510;2024-02-26T12:11:21;100726.34;;;6.47;79.25
21988;BME280;11158;53.404;-1.510;2024-02-26T12:13:47;100729.47;;;6.67;74.52
21988;BME280;11158;53.404;-1.510;2024-02-26T12:16:38;100734.53;;;6.79;73.05
21988;BME280;11158;53.404;-1.510;2024-02-26T12:19:08;100737.75;;;6.50;73.58
21988;BME280;11158;53.404;-1.510;2024-02-26T12:21:35;100737.56;;;6.61;73.09
21988;BME280;11158;53.404;-1.510;2024-02-26T12:24:14;100735.28;;;6.86;68.92
21988;BME280;11158;53.404;-1.510;2024-02-26T12:26:41;100731.75;;;6.86;69.23
21988;BME280;11158;53.404;-1.510;2024-02-26T12:29:07;100739.50;;;6.96;69.98
21988;BME280;11158;53.404;-1.510;2024-02-26T12:31:33;100741.38;;;6.90;71.18
21988;BME280;11158;53.404;-1.510;2024-02-26T12:34:01;100744.88;;;6.92;73.02
21988;BME280;11158;53.404;-1.510;2024-02-26T12:36:27;100751.28;;;6.81;71.65
21988;BME280;11158;53.404;-1.510;2024-02-26T12:38:52;100745.88;;;6.84;69.52
21988;BME280;11158;53.404;-1.510;2024-02-26T12:41:18;100742.47;;;7.21;68.02
21988;BME280;11158;53.404;-1.510;2024-02-26T12:43:44;100750.31;;;7.24;68.52
21988;BME280;11158;53.404;-1.510;2024-02-26T12:46:10;100751.25;;;7.23;67.56
21988;BME280;11158;53.404;-1.510;2024-02-26T12:48:36;100757.25;;;6.91;68.03